createdAt,value
2023-12-19T00:07:14.024Z,97.5
2023-12-19T00:17:14.998Z,97.7
2023-12-19T00:27:14.211Z,97.8
2023-12-19T00:37:17.196Z,98.0
2023-12-19T00:47:19.167Z,98.1
2023-12-19T00:57:12.702Z,98.2
2023-12-19T01:07:14.354Z,98.2
2023-12-19T01:17:13.205Z,98.3
2023-12-19T01:27:15.607Z,98.4
2023-12-19T01:37:13.999Z,98.5
2023-12-19T01:47:14.604Z,98.6
2023-12-19T01:57:12.913Z,98.6
2023-12-19T02:07:14.679Z,98.7
2023-12-19T02:17:12.825Z,98.8
2023-12-19T02:27:14.590Z,98.8
2023-12-19T02:37:14.141Z,98.8
2023-12-19T02:47:12.764Z,98.8
2023-12-19T02:57:12.550Z,98.9
2023-12-19T03:07:12.667Z,98.9
2023-12-19T03:17:13.525Z,98.9
2023-12-19T03:27:13.304Z,98.9
2023-12-19T03:37:14.839Z,98.8
2023-12-19T03:47:13.095Z,98.8
2023-12-19T03:57:12.689Z,98.7
2023-12-19T04:07:13.971Z,98.7
2023-12-19T04:17:15.355Z,98.7
2023-12-19T04:27:13.091Z,98.7
2023-12-19T04:37:12.878Z,98.7
2023-12-19T04:47:13.805Z,98.7
2023-12-19T04:57:14.830Z,98.7
2023-12-19T05:07:12.953Z,98.7
2023-12-19T05:17:12.696Z,98.6
2023-12-19T05:27:13.017Z,98.5
2023-12-19T05:37:12.942Z,98.4
2023-12-19T05:47:12.863Z,98.3
2023-12-19T05:57:12.799Z,98.3
2023-12-19T06:07:13.555Z,98.2
2023-12-19T06:17:12.558Z,98.3
2023-12-19T06:27:12.758Z,98.3
2023-12-19T06:37:15.885Z,98.4
2023-12-19T06:47:12.961Z,98.3
2023-12-19T06:57:13.081Z,98.3
2023-12-19T07:07:13.839Z,98.2
2023-12-19T07:17:13.192Z,98.0
2023-12-19T07:27:12.934Z,97.9
2023-12-19T07:37:12.993Z,97.8
2023-12-19T07:47:14.443Z,97.7
2023-12-19T07:57:12.908Z,97.5
2023-12-19T08:07:13.346Z,97.4
2023-12-19T08:17:13.397Z,97.4
2023-12-19T08:27:13.085Z,97.6
2023-12-19T08:37:15.461Z,97.6
2023-12-19T08:47:16.045Z,97.8
2023-12-19T08:57:13.209Z,97.9
2023-12-19T09:07:13.260Z,97.8
2023-12-19T09:17:14.758Z,97.9
2023-12-19T09:27:13.249Z,97.9
2023-12-19T09:37:13.404Z,98.0
2023-12-19T09:47:13.164Z,98.1
2023-12-19T09:57:14.348Z,98.1
2023-12-19T10:07:13.229Z,98.0
2023-12-19T10:17:15.494Z,98.0
2023-12-19T10:27:13.726Z,98.0
2023-12-19T10:37:13.289Z,98.0
2023-12-19T10:47:15.566Z,98.0
2023-12-19T10:57:13.198Z,97.8
2023-12-19T11:07:13.370Z,97.6
2023-12-19T11:17:14.621Z,97.7
2023-12-19T11:27:13.683Z,97.7
2023-12-19T11:37:14.673Z,97.6
2023-12-19T11:47:15.321Z,97.6
2023-12-19T11:57:14.070Z,97.6
2023-12-19T12:07:16.434Z,97.7
2023-12-19T12:17:14.300Z,97.7
2023-12-19T12:27:15.167Z,97.8
2023-12-19T12:37:15.061Z,97.7
2023-12-19T12:47:14.684Z,97.7
2023-12-19T12:57:16.971Z,97.7
2023-12-19T13:07:16.849Z,97.8
2023-12-19T13:17:15.756Z,98.0
2023-12-19T13:27:14.922Z,98.0
2023-12-19T13:37:15.088Z,98.0
2023-12-19T13:47:15.602Z,98.0
2023-12-19T13:57:15.568Z,98.1
2023-12-19T14:07:16.940Z,98.1
2023-12-19T14:17:15.395Z,98.3
2023-12-19T14:27:15.898Z,98.4
2023-12-19T14:37:15.772Z,98.5
2023-12-19T14:47:15.702Z,98.7
2023-12-19T14:57:16.244Z,98.8
2023-12-19T15:07:16.540Z,98.8
2023-12-19T15:17:16.560Z,99.0
2023-12-19T15:27:17.090Z,99.1
2023-12-19T15:37:16.951Z,99.2
2023-12-19T15:47:18.493Z,99.3
2023-12-19T15:57:17.763Z,99.4
2023-12-19T16:07:17.318Z,99.5
2023-12-19T16:17:17.105Z,99.6
2023-12-19T16:27:18.648Z,99.8
2023-12-19T16:37:18.382Z,99.8
2023-12-19T16:47:17.887Z,99.9
2023-12-19T16:57:17.456Z,99.9
2023-12-19T17:07:17.389Z,100.0
2023-12-19T17:17:18.847Z,100.0
2023-12-19T17:27:18.099Z,100.0
2023-12-19T17:37:18.822Z,100.0
2023-12-19T17:47:19.412Z,100.0
2023-12-19T17:57:17.922Z,100.0
2023-12-19T18:07:20.592Z,100.0
2023-12-19T18:17:18.675Z,100.0
2023-12-19T18:27:19.231Z,100.0
2023-12-19T18:37:20.145Z,100.0
2023-12-19T18:47:19.432Z,100.0
2023-12-19T18:57:21.279Z,100.0
2023-12-19T19:07:19.894Z,100.0
2023-12-19T19:17:20.907Z,100.0
2023-12-19T19:27:19.915Z,100.0
2023-12-19T19:37:20.740Z,100.0
2023-12-19T19:47:24.928Z,100.0
2023-12-19T19:57:20.563Z,99.7
2023-12-19T20:07:20.922Z,99.4
2023-12-19T20:17:21.216Z,99.0
2023-12-19T20:27:21.363Z,98.6
2023-12-19T20:37:23.417Z,98.3
2023-12-19T20:47:22.590Z,98.2
2023-12-19T20:57:22.287Z,98.0
2023-12-19T21:07:22.181Z,98.0
2023-12-19T21:17:21.973Z,97.8
2023-12-19T21:27:22.920Z,97.8
2023-12-19T21:37:24.376Z,97.8
2023-12-19T21:47:22.107Z,97.8
2023-12-19T21:57:22.045Z,97.9
2023-12-19T22:07:21.872Z,97.9
2023-12-19T22:17:22.281Z,98.0
2023-12-19T22:27:22.128Z,98.1
2023-12-19T22:37:22.267Z,98.2
2023-12-19T22:47:22.414Z,98.0
2023-12-19T22:57:22.232Z,98.0
2023-12-19T23:07:22.118Z,97.8
2023-12-19T23:17:23.002Z,97.8
2023-12-19T23:27:22.644Z,97.9
2023-12-19T23:37:25.041Z,97.9
2023-12-19T23:47:24.159Z,97.8
2023-12-19T23:57:24.373Z,97.9
